createdAt,value
2019-01-19T00:02:39.170Z,76.40
2019-01-19T00:05:46.991Z,75.93
2019-01-19T00:08:48.188Z,75.75
2019-01-19T00:11:55.979Z,75.76
2019-01-19T00:14:50.745Z,75.57
2019-01-19T00:17:52.670Z,75.31
2019-01-19T00:21:00.903Z,75.10
2019-01-19T00:24:09.446Z,74.99
2019-01-19T00:27:11.593Z,75.34
2019-01-19T00:30:19.780Z,75.68
2019-01-19T00:33:13.461Z,75.62
2019-01-19T00:36:21.260Z,75.10
2019-01-19T00:39:29.375Z,75.19
2019-01-19T00:42:37.234Z,75.45
2019-01-19T00:45:45.154Z,75.62
2019-01-19T00:48:53.290Z,75.57
2019-01-19T00:52:01.382Z,75.67
2019-01-19T00:54:53.479Z,75.89
2019-01-19T00:58:01.394Z,75.92
2019-01-19T01:00:38.081Z,76.05
2019-01-19T01:03:46.264Z,76.31
2019-01-19T01:06:50.433Z,76.34
2019-01-19T01:09:58.675Z,76.40
2019-01-19T01:13:06.483Z,76.53
2019-01-19T01:15:58.913Z,76.62
2019-01-19T01:19:07.002Z,76.57
2019-01-19T01:22:15.316Z,76.70
2019-01-19T01:28:40.098Z,76.92
2019-01-19T01:31:48.115Z,77.31
2019-01-19T01:34:46.106Z,77.46
2019-01-19T01:37:46.889Z,77.66
2019-01-19T01:40:55.039Z,77.82
2019-01-19T01:43:47.215Z,77.79
2019-01-19T01:46:55.175Z,78.12
2019-01-19T01:50:03.493Z,78.38
2019-01-19T01:53:11.290Z,78.56
2019-01-19T01:55:44.784Z,77.93
2019-01-19T01:58:52.874Z,77.74
2019-01-19T02:02:01.271Z,77.88
2019-01-19T02:05:09.206Z,77.72
2019-01-19T02:08:11.170Z,77.07
2019-01-19T02:11:05.086Z,77.17
2019-01-19T02:14:13.052Z,77.61
2019-01-19T02:16:54.150Z,77.39
2019-01-19T02:20:02.439Z,77.12
2019-01-19T02:23:10.355Z,77.04
2019-01-19T02:26:18.170Z,77.38
2019-01-19T02:29:19.639Z,77.66
2019-01-19T02:32:23.268Z,77.66
2019-01-19T02:35:20.554Z,77.65
2019-01-19T02:38:28.529Z,78.07
2019-01-19T02:41:36.292Z,78.31
2019-01-19T02:44:29.803Z,78.14
2019-01-19T02:47:37.892Z,78.38
2019-01-19T02:50:46.114Z,78.49
2019-01-19T02:53:54.003Z,78.53
2019-01-19T02:57:02.184Z,79.26
2019-01-19T03:00:10.042Z,78.36
2019-01-19T03:03:19.532Z,79.18
2019-01-19T03:06:27.347Z,79.29
2019-01-19T03:09:24.644Z,78.84
2019-01-19T03:12:32.808Z,79.27
2019-01-19T03:15:41.163Z,78.87
2019-01-19T03:18:38.263Z,78.44
2019-01-19T03:21:33.325Z,78.98
2019-01-19T03:24:41.206Z,78.80
2019-01-19T03:27:49.308Z,79.04
2019-01-19T03:30:54.445Z,79.02
2019-01-19T03:34:02.389Z,78.88
2019-01-19T03:36:42.754Z,78.88
2019-01-19T03:39:50.860Z,78.60
2019-01-19T03:42:58.921Z,78.60
2019-01-19T03:46:07.892Z,78.87
2019-01-19T03:49:03.308Z,78.85
2019-01-19T03:51:57.929Z,79.01
2019-01-19T03:54:50.715Z,78.75
2019-01-19T03:57:44.063Z,78.61
2019-01-19T04:00:35.171Z,78.35
2019-01-19T04:03:43.407Z,78.38
2019-01-19T04:06:51.353Z,78.46
2019-01-19T04:09:59.261Z,78.66
2019-01-19T04:13:07.145Z,78.78
2019-01-19T04:16:15.260Z,78.98
2019-01-19T04:19:23.034Z,78.88
2019-01-19T04:22:31.030Z,78.75
2019-01-19T04:25:26.618Z,78.13
2019-01-19T04:30:34.503Z,78.31
2019-01-19T04:33:04.877Z,78.29
2019-01-19T04:35:35.462Z,78.33
2019-01-19T04:38:05.820Z,78.48
2019-01-19T04:40:36.500Z,78.45
2019-01-19T04:43:06.814Z,78.44
2019-01-19T04:45:37.500Z,78.67
2019-01-19T04:48:07.812Z,78.77
2019-01-19T04:50:38.534Z,78.91
2019-01-19T04:53:08.915Z,78.38
2019-01-19T04:55:39.549Z,78.07
2019-01-19T04:58:09.898Z,78.37
2019-01-19T05:00:40.516Z,78.07
2019-01-19T05:03:10.889Z,77.87
2019-01-19T05:05:41.489Z,78.14
2019-01-19T05:08:11.811Z,78.21
2019-01-19T05:10:42.443Z,78.03
2019-01-19T05:13:12.759Z,78.02
2019-01-19T05:15:43.479Z,78.09
2019-01-19T05:18:13.832Z,78.42
2019-01-19T05:20:44.468Z,78.41
2019-01-19T05:23:14.813Z,78.31
2019-01-19T05:25:45.379Z,77.80
2019-01-19T05:28:15.683Z,77.74
2019-01-19T05:30:46.326Z,77.41
2019-01-19T05:33:16.997Z,77.31
2019-01-19T05:35:47.465Z,77.00
2019-01-19T05:38:17.804Z,77.13
2019-01-19T05:40:48.429Z,77.59
2019-01-19T05:43:18.745Z,77.48
2019-01-19T05:45:49.430Z,77.53
2019-01-19T05:48:19.766Z,77.66
2019-01-19T05:50:50.505Z,77.59
2019-01-19T05:53:20.857Z,77.66
2019-01-19T05:55:51.570Z,77.63
2019-01-19T05:58:21.889Z,77.87
2019-01-19T06:00:52.553Z,77.84
2019-01-19T06:03:22.895Z,78.00
2019-01-19T06:05:53.749Z,78.14
2019-01-19T06:08:24.667Z,78.15
2019-01-19T06:10:55.691Z,78.81
2019-01-19T06:13:26.274Z,79.28
2019-01-19T06:15:56.592Z,79.32
2019-01-19T06:26:19.581Z,79.80
2019-01-19T06:28:49.984Z,79.93
2019-01-19T06:31:20.664Z,80.01
2019-01-19T06:33:51.025Z,80.17
2019-01-19T06:36:21.622Z,80.23
2019-01-19T06:38:52.013Z,79.98
2019-01-19T06:41:22.668Z,80.27
2019-01-19T06:44:12.424Z,80.86
2019-01-19T06:46:42.897Z,80.86
2019-01-19T06:49:13.669Z,79.98
2019-01-19T06:51:44.561Z,79.75
2019-01-19T06:54:17.214Z,80.45
2019-01-19T06:56:47.614Z,80.31
2019-01-19T06:59:17.960Z,80.55
2019-01-19T07:01:48.532Z,80.83
2019-01-19T07:04:18.863Z,80.90
2019-01-19T07:06:49.639Z,80.91
2019-01-19T07:09:20.289Z,81.04
2019-01-19T07:11:50.972Z,81.11
2019-01-19T07:14:23.000Z,81.28
2019-01-19T07:16:53.584Z,81.22
2019-01-19T07:19:23.973Z,81.10
2019-01-19T07:21:54.511Z,80.89
2019-01-19T07:24:24.951Z,81.06
2019-01-19T07:26:55.576Z,81.14
2019-01-19T07:29:25.918Z,81.25
2019-01-19T07:31:56.629Z,81.49
2019-01-19T07:34:26.984Z,81.24
2019-01-19T07:36:57.534Z,81.54
2019-01-19T07:39:27.845Z,81.21
2019-01-19T07:41:58.447Z,81.37
2019-01-19T07:44:28.738Z,81.38
2019-01-19T07:49:50.598Z,81.68
2019-01-19T07:52:20.927Z,81.70
2019-01-19T07:54:51.751Z,81.54
2019-01-19T07:57:22.355Z,81.65
2019-01-19T07:59:52.786Z,81.68
2019-01-19T08:02:23.509Z,81.55
2019-01-19T08:04:53.921Z,81.47
2019-01-19T08:07:24.541Z,81.44
2019-01-19T08:09:54.902Z,81.26
2019-01-19T08:12:25.543Z,81.06
2019-01-19T08:14:55.913Z,80.88
2019-01-19T08:17:48.039Z,80.70
2019-01-19T08:20:18.687Z,81.04
2019-01-19T08:22:49.293Z,80.95
2019-01-19T08:25:19.660Z,81.14
2019-01-19T08:28:08.792Z,81.46
2019-01-19T08:30:40.606Z,81.46
2019-01-19T08:33:11.433Z,81.31
2019-01-19T08:35:50.797Z,81.15
2019-01-19T08:38:21.482Z,81.52
2019-01-19T08:40:51.900Z,81.18
2019-01-19T08:43:27.489Z,80.98
2019-01-19T08:45:57.755Z,81.33
2019-01-19T08:48:49.276Z,81.80
2019-01-19T08:51:19.735Z,80.67
2019-01-19T08:54:09.783Z,80.46
2019-01-19T08:56:40.521Z,80.46
2019-01-19T08:59:10.806Z,80.37
2019-01-19T09:01:41.495Z,80.89
2019-01-19T09:04:12.124Z,81.52
2019-01-19T09:06:43.945Z,80.99
2019-01-19T09:09:14.574Z,80.98
2019-01-19T09:11:44.870Z,81.19
2019-01-19T09:14:15.488Z,80.81
2019-01-19T09:16:48.019Z,80.39
2019-01-19T09:19:18.690Z,80.58
2019-01-19T09:21:49.815Z,80.77
2019-01-19T09:27:01.493Z,80.51
2019-01-19T09:29:32.064Z,80.24
2019-01-19T09:32:02.684Z,80.01
2019-01-19T09:34:34.132Z,80.19
2019-01-19T09:37:06.906Z,80.37
2019-01-19T09:39:37.413Z,79.88
2019-01-19T09:42:07.815Z,80.27
2019-01-19T09:44:38.438Z,80.00
2019-01-19T09:47:08.761Z,80.25
2019-01-19T09:49:39.445Z,79.74
2019-01-19T09:52:09.714Z,79.59
2019-01-19T09:54:40.425Z,79.98
2019-01-19T09:57:10.857Z,79.98
2019-01-19T09:59:41.481Z,80.08
2019-01-19T10:02:11.765Z,79.88
2019-01-19T10:04:42.385Z,78.79
2019-01-19T10:07:12.786Z,78.99
2019-01-19T10:09:43.330Z,78.71
2019-01-19T10:12:13.837Z,78.56
2019-01-19T10:14:44.596Z,77.77
2019-01-19T10:17:14.925Z,77.78
2019-01-19T10:19:45.604Z,77.46
2019-01-19T10:25:26.743Z,80.78
2019-01-19T10:27:57.363Z,82.41
2019-01-19T10:30:28.220Z,79.43
2019-01-19T10:32:58.706Z,76.88
2019-01-19T10:35:29.335Z,75.41
2019-01-19T10:37:59.678Z,75.54
2019-01-19T10:40:30.293Z,74.88
2019-01-19T10:43:01.034Z,75.28
2019-01-19T10:45:31.423Z,74.92
